createdAt,value
2019-05-12T00:01:18.715Z,32.03
2019-05-12T00:03:53.802Z,56.63
2019-05-12T00:06:29.859Z,15.67
2019-05-12T00:09:08.405Z,40.53
2019-05-12T00:11:43.354Z,95.07
2019-05-12T00:14:19.539Z,81.17
2019-05-12T00:16:54.634Z,211.13
2019-05-12T00:19:29.733Z,95.83
2019-05-12T00:22:07.665Z,19.77
2019-05-12T00:24:43.031Z,94.43
2019-05-12T00:27:22.686Z,66.03
2019-05-12T00:29:57.970Z,62.67
2019-05-12T00:32:33.123Z,78.50
2019-05-12T00:35:08.577Z,43.07
2019-05-12T00:37:44.173Z,44.60
2019-05-12T00:40:19.455Z,15.00
2019-05-12T00:42:54.629Z,59.10
2019-05-12T00:45:30.883Z,11.07
2019-05-12T00:48:08.744Z,14.40
2019-05-12T00:50:43.416Z,38.50
2019-05-12T00:53:19.068Z,17.50
2019-05-12T00:55:57.854Z,14.87
2019-05-12T00:58:32.724Z,60.10
2019-05-12T01:01:08.780Z,50.00
2019-05-12T01:03:44.076Z,15.23
2019-05-12T01:06:19.441Z,16.23
2019-05-12T01:08:54.687Z,22.60
2019-05-12T01:11:30.099Z,213.00
2019-05-12T01:14:08.326Z,8.83
2019-05-12T01:16:43.006Z,40.00
2019-05-12T01:19:18.640Z,51.73
2019-05-12T01:21:55.187Z,2.87
2019-05-12T01:24:30.406Z,36.00
2019-05-12T01:27:05.907Z,53.73
2019-05-12T01:29:41.565Z,63.47
2019-05-12T01:32:34.901Z,28.87
2019-05-12T01:35:11.658Z,53.30
2019-05-12T01:37:48.424Z,80.03
2019-05-12T01:40:25.021Z,15.50
2019-05-12T01:43:00.608Z,179.87
2019-05-12T01:45:38.107Z,3.33
2019-05-12T01:48:15.136Z,45.37
2019-05-12T01:50:50.270Z,71.27
2019-05-12T01:53:28.543Z,50.23
2019-05-12T01:56:03.593Z,65.90
2019-05-12T01:58:38.884Z,35.73
2019-05-12T02:01:15.937Z,29.83
2019-05-12T02:03:51.190Z,34.03
2019-05-12T02:06:27.858Z,11.10
2019-05-12T02:09:05.113Z,50.10
2019-05-12T02:11:40.583Z,29.20
2019-05-12T02:14:18.130Z,63.93
2019-05-12T02:16:52.943Z,52.13
2019-05-12T02:19:28.368Z,6.50
2019-05-12T02:22:03.584Z,22.80
2019-05-12T02:24:39.115Z,18.33
2019-05-12T02:27:17.824Z,51.67
2019-05-12T02:29:52.692Z,18.63
2019-05-12T02:32:39.734Z,22.27
2019-05-12T02:35:06.782Z,13.50
2019-05-12T02:37:47.156Z,28.93
2019-05-12T02:40:25.147Z,3.13
2019-05-12T02:43:00.656Z,16.30
2019-05-12T02:45:36.226Z,23.23
2019-05-12T02:48:14.287Z,4.83
2019-05-12T02:50:48.397Z,22.40
2019-05-12T02:53:25.080Z,72.07
2019-05-12T02:56:01.120Z,85.93
2019-05-12T02:58:38.233Z,206.10
2019-05-12T03:01:15.285Z,53.07
2019-05-12T03:03:54.797Z,65.37
2019-05-12T03:06:29.446Z,23.17
2019-05-12T03:09:08.155Z,17.03
2019-05-12T03:11:45.203Z,56.93
2019-05-12T03:14:25.063Z,30.50
2019-05-12T03:17:01.068Z,39.30
2019-05-12T03:19:36.372Z,11.27
2019-05-12T03:22:13.903Z,55.93
2019-05-12T03:25:06.461Z,60.50
2019-05-12T03:27:25.825Z,30.30
2019-05-12T03:30:09.992Z,16.87
2019-05-12T03:32:38.754Z,3.23
2019-05-12T03:35:17.687Z,21.77
2019-05-12T03:37:51.175Z,28.00
2019-05-12T03:40:26.507Z,22.13
2019-05-12T03:43:01.637Z,10.07
2019-05-12T03:45:37.818Z,25.67
2019-05-12T03:48:14.852Z,5.20
2019-05-12T03:50:53.979Z,14.00
2019-05-12T03:53:29.037Z,200.60
2019-05-12T03:56:04.540Z,53.47
2019-05-12T03:58:39.861Z,46.97
2019-05-12T04:01:15.382Z,132.43
2019-05-12T04:03:50.537Z,157.63
2019-05-12T04:06:27.627Z,27.30
2019-05-12T04:09:04.783Z,14.13
2019-05-12T04:11:44.425Z,15.73
2019-05-12T04:14:18.661Z,60.30
2019-05-12T04:16:55.150Z,24.13
2019-05-12T04:19:34.208Z,11.30
2019-05-12T04:22:07.740Z,4.27
2019-05-12T04:24:54.900Z,24.20
2019-05-12T04:27:34.843Z,25.17
2019-05-12T04:30:10.305Z,34.40
2019-05-12T04:32:45.729Z,12.27
2019-05-12T04:35:20.872Z,10.23
2019-05-12T04:37:56.515Z,21.40
2019-05-12T04:40:35.336Z,148.17
2019-05-12T04:43:08.622Z,11.37
2019-05-12T04:45:45.523Z,15.77
2019-05-12T04:48:29.529Z,12.63
2019-05-12T04:51:25.940Z,10.77
2019-05-12T04:54:05.710Z,23.50
2019-05-12T04:56:57.800Z,23.07
2019-05-12T04:59:34.469Z,26.27
2019-05-12T05:02:15.345Z,29.57
2019-05-12T05:05:01.182Z,10.93
2019-05-12T05:07:44.804Z,30.10
2019-05-12T05:10:24.735Z,10.67
2019-05-12T05:13:24.548Z,24.13
2019-05-12T05:16:01.135Z,15.40
2019-05-12T05:18:40.798Z,24.17
2019-05-12T05:21:16.268Z,44.23
2019-05-12T05:23:53.675Z,36.40
2019-05-12T05:26:28.565Z,19.33
2019-05-12T05:29:04.448Z,61.77
2019-05-12T05:31:39.939Z,38.67
2019-05-12T05:34:15.201Z,36.00
2019-05-12T05:36:51.001Z,23.60
2019-05-12T05:39:27.417Z,10.47
2019-05-12T05:42:04.575Z,13.63
2019-05-12T05:44:39.884Z,35.43
2019-05-12T05:47:15.241Z,45.07
2019-05-12T05:49:53.878Z,50.07
2019-05-12T05:52:33.114Z,41.70
2019-05-12T05:55:14.590Z,54.97
2019-05-12T05:57:46.988Z,57.83
2019-05-12T06:00:26.019Z,17.13
2019-05-12T06:02:59.243Z,65.93
2019-05-12T06:05:38.470Z,5.30
2019-05-12T06:08:18.730Z,11.77
2019-05-12T06:10:48.766Z,24.00
2019-05-12T06:13:29.978Z,4.13
2019-05-12T06:16:01.036Z,67.63
2019-05-12T06:18:36.233Z,55.00
2019-05-12T06:21:13.626Z,72.07
2019-05-12T06:23:48.608Z,24.13
2019-05-12T06:26:28.206Z,4.43
2019-05-12T06:29:00.828Z,17.83
2019-05-12T06:31:37.904Z,14.57
2019-05-12T06:34:18.754Z,44.83
2019-05-12T06:36:54.781Z,32.40
2019-05-12T06:39:28.259Z,27.20
2019-05-12T06:42:12.371Z,3.10
2019-05-12T06:44:43.646Z,19.47
2019-05-12T06:47:20.981Z,77.37
2019-05-12T06:49:58.121Z,59.23
2019-05-12T06:52:38.585Z,36.00
2019-05-12T06:55:17.285Z,14.30
2019-05-12T06:57:54.492Z,64.10
2019-05-12T07:00:39.802Z,4.00
2019-05-12T07:03:25.794Z,13.67
2019-05-12T07:06:00.472Z,52.30
2019-05-12T07:08:38.544Z,10.53
2019-05-12T07:11:14.542Z,2.83
2019-05-12T07:14:02.095Z,20.83
2019-05-12T07:16:34.093Z,41.77
2019-05-12T07:19:17.303Z,25.07
2019-05-12T07:21:58.832Z,16.97
2019-05-12T07:24:34.482Z,13.00
2019-05-12T07:27:11.409Z,79.13
2019-05-12T07:29:46.831Z,15.70
2019-05-12T07:32:25.440Z,80.83
2019-05-12T07:35:06.311Z,42.90
2019-05-12T07:37:54.350Z,40.87
2019-05-12T07:40:38.151Z,12.47
2019-05-12T07:46:09.903Z,56.87
2019-05-12T07:48:56.944Z,107.00
2019-05-12T07:55:00.900Z,172.40
2019-05-12T07:57:52.985Z,20.43
2019-05-12T08:00:25.737Z,370.13
2019-05-12T08:03:16.143Z,121.67
2019-05-12T08:06:01.508Z,98.57
2019-05-12T08:08:58.080Z,50.97
2019-05-12T08:11:54.031Z,156.55
2019-05-12T08:14:38.947Z,138.07
2019-05-12T08:20:18.879Z,48.78
2019-05-12T08:23:13.932Z,75.95
2019-05-12T08:25:55.398Z,52.55
2019-05-12T08:34:53.992Z,17.00
2019-05-12T08:37:33.323Z,121.97
2019-05-12T08:40:17.278Z,12.37
2019-05-12T08:42:59.346Z,182.37
2019-05-12T08:46:05.932Z,29.15
2019-05-12T08:58:05.919Z,54.93
2019-05-12T09:03:37.332Z,59.20
2019-05-12T09:06:34.162Z,156.67
2019-05-12T09:12:16.641Z,215.13
2019-05-12T09:17:56.888Z,18.35
2019-05-12T09:23:45.416Z,33.83
2019-05-12T09:26:34.418Z,192.13
2019-05-12T09:29:25.246Z,136.23
2019-05-12T09:32:09.524Z,22.60
2019-05-12T09:40:35.922Z,28.62
2019-05-12T09:46:38.422Z,114.37
2019-05-12T09:49:33.355Z,209.67
2019-05-12T09:55:28.569Z,54.67
2019-05-12T09:58:27.638Z,45.25
2019-05-12T10:10:43.753Z,16.25
2019-05-12T10:16:39.499Z,53.13
2019-05-12T10:22:37.698Z,22.07
2019-05-12T10:28:11.401Z,63.55
2019-05-12T10:34:24.392Z,48.02
2019-05-12T10:37:09.521Z,75.20
2019-05-12T10:45:58.867Z,105.70
2019-05-12T10:48:53.901Z,50.65
2019-05-12T10:51:53.805Z,74.62
2019-05-12T10:54:43.382Z,82.72
2019-05-12T10:57:35.097Z,12.30
2019-05-12T11:00:34.532Z,81.42
2019-05-12T11:03:42.983Z,90.77
2019-05-12T11:06:24.329Z,38.78
2019-05-12T11:09:03.785Z,31.62
2019-05-12T11:11:47.179Z,24.85
2019-05-12T11:14:37.489Z,73.75
2019-05-12T11:17:20.877Z,166.50
2019-05-12T11:20:04.146Z,76.90
2019-05-12T11:22:47.103Z,39.33
2019-05-12T11:25:29.119Z,38.33
2019-05-12T11:28:04.834Z,36.87
2019-05-12T11:30:43.678Z,27.10
2019-05-12T11:33:20.814Z,48.20
2019-05-12T11:36:00.459Z,41.87
2019-05-12T11:38:36.899Z,133.85
2019-05-12T11:41:16.129Z,182.60
2019-05-12T11:43:57.474Z,77.87
2019-05-12T11:46:36.418Z,38.63
2019-05-12T11:49:15.765Z,38.10
2019-05-12T11:52:01.107Z,58.40
2019-05-12T11:54:41.112Z,211.90
2019-05-12T11:57:30.146Z,182.33
2019-05-12T12:00:16.643Z,172.90
2019-05-12T12:03:03.672Z,60.60
2019-05-12T12:05:53.800Z,170.75
2019-05-12T12:08:39.709Z,20.37
2019-05-12T12:11:27.711Z,12.13
2019-05-12T12:14:10.246Z,101.42
2019-05-12T12:16:57.291Z,11.12
2019-05-12T12:19:38.925Z,82.90
2019-05-12T12:22:20.488Z,12.03
2019-05-12T12:25:05.054Z,34.53
2019-05-12T12:27:44.265Z,9.40
2019-05-12T12:33:31.164Z,75.10
2019-05-12T12:36:05.743Z,75.70
2019-05-12T12:38:43.915Z,84.67
2019-05-12T12:41:26.928Z,91.35
2019-05-12T12:44:08.665Z,48.60
2019-05-12T12:46:51.249Z,88.03
2019-05-12T12:49:29.277Z,41.53
2019-05-12T12:52:09.339Z,207.37
2019-05-12T12:54:59.315Z,132.72
2019-05-12T12:57:40.293Z,17.52
2019-05-12T13:00:29.856Z,128.12
2019-05-12T13:03:05.319Z,8.75
2019-05-12T13:05:58.909Z,189.40
2019-05-12T13:08:43.394Z,185.22
2019-05-12T13:11:32.157Z,16.00
2019-05-12T13:14:04.122Z,32.25
2019-05-12T13:16:54.647Z,108.63
2019-05-12T13:19:33.325Z,168.47
2019-05-12T13:22:18.950Z,119.77
2019-05-12T13:24:58.167Z,16.82
2019-05-12T13:27:36.145Z,87.22
2019-05-12T13:30:20.068Z,34.75
2019-05-12T13:32:58.482Z,175.93
2019-05-12T13:38:40.434Z,133.63
2019-05-12T13:41:24.687Z,146.77
2019-05-12T13:44:16.062Z,48.33
2019-05-12T13:50:21.772Z,70.25
2019-05-12T13:53:01.036Z,32.85
2019-05-12T13:58:46.053Z,41.10
2019-05-12T14:07:34.419Z,18.50
2019-05-12T14:10:16.558Z,25.97
2019-05-12T14:19:15.872Z,27.20
2019-05-12T14:24:56.883Z,13.48
2019-05-12T14:27:34.957Z,66.40
2019-05-12T14:36:21.938Z,54.67
2019-05-12T14:39:14.378Z,53.50
2019-05-12T14:41:58.759Z,44.53
2019-05-12T14:44:44.772Z,139.50
2019-05-12T14:47:24.071Z,8.93
2019-05-12T14:50:04.034Z,113.65
2019-05-12T14:52:50.196Z,7.50
2019-05-12T14:55:35.275Z,11.95
2019-05-12T14:58:20.903Z,5.05
2019-05-12T15:01:05.141Z,134.40
2019-05-12T15:03:42.297Z,62.15
2019-05-12T15:06:19.413Z,33.83
2019-05-12T15:08:56.875Z,40.23
2019-05-12T15:11:34.065Z,136.07
2019-05-12T15:17:22.375Z,96.23
2019-05-12T15:20:06.631Z,133.80
2019-05-12T15:22:51.541Z,138.30
2019-05-12T15:25:50.779Z,46.83
2019-05-12T15:28:34.108Z,48.87
2019-05-12T15:31:14.495Z,84.15
2019-05-12T15:34:00.556Z,8.50
2019-05-12T15:36:55.992Z,50.33
2019-05-12T15:45:34.300Z,31.97
2019-05-12T15:48:25.652Z,111.80
2019-05-12T15:51:06.970Z,50.98
2019-05-12T15:53:46.952Z,74.23
2019-05-12T15:56:28.176Z,71.63
2019-05-12T15:59:06.723Z,34.70
2019-05-12T16:02:08.777Z,3.67
2019-05-12T16:04:42.734Z,76.60
2019-05-12T16:07:35.675Z,67.43
2019-05-12T16:10:11.124Z,16.73
2019-05-12T16:12:55.737Z,140.43
2019-05-12T16:15:34.041Z,17.47
2019-05-12T16:18:16.952Z,7.75
2019-05-12T16:20:58.837Z,44.37
2019-05-12T16:23:34.085Z,89.27
2019-05-12T16:26:12.532Z,166.63
2019-05-12T16:28:47.515Z,62.03
2019-05-12T16:31:34.224Z,22.73
2019-05-12T16:34:14.034Z,50.07
2019-05-12T16:36:51.986Z,135.73
2019-05-12T16:39:35.662Z,23.00
2019-05-12T16:42:10.374Z,118.10
2019-05-12T16:44:45.265Z,142.67
2019-05-12T16:47:27.313Z,39.47
2019-05-12T16:49:59.785Z,34.00
2019-05-12T16:52:40.516Z,128.70
2019-05-12T16:55:16.685Z,90.47
2019-05-12T16:57:56.956Z,23.60
2019-05-12T17:00:33.878Z,68.23
2019-05-12T17:03:11.232Z,10.32
2019-05-12T17:05:55.619Z,179.13
2019-05-12T17:08:29.922Z,15.10
2019-05-12T17:11:24.347Z,17.00
2019-05-12T17:13:56.823Z,125.93
2019-05-12T17:16:35.369Z,30.83
2019-05-12T17:19:10.342Z,6.03
2019-05-12T17:21:49.608Z,65.10
2019-05-12T17:24:24.091Z,134.37
2019-05-12T17:27:00.420Z,124.10
2019-05-12T17:29:37.831Z,53.20
2019-05-12T17:32:13.545Z,27.97
2019-05-12T17:34:48.672Z,22.53
2019-05-12T17:37:23.970Z,176.33
2019-05-12T17:39:59.198Z,98.07
2019-05-12T17:42:34.636Z,29.80
2019-05-12T17:45:15.856Z,189.37
2019-05-12T17:47:56.814Z,28.27
2019-05-12T17:50:26.931Z,80.43
2019-05-12T17:53:04.531Z,12.23
2019-05-12T17:55:44.328Z,26.97
2019-05-12T17:58:16.505Z,38.43
2019-05-12T18:00:52.926Z,139.10
2019-05-12T18:03:28.222Z,19.20
2019-05-12T18:06:08.735Z,27.00
2019-05-12T18:08:44.998Z,90.87
2019-05-12T18:11:20.174Z,60.97
2019-05-12T18:14:01.566Z,39.40
2019-05-12T18:16:33.955Z,41.17
2019-05-12T18:19:15.342Z,144.87
2019-05-12T18:21:48.676Z,61.20
2019-05-12T18:24:24.145Z,44.60
2019-05-12T18:27:07.227Z,31.07
2019-05-12T18:29:38.138Z,129.47
2019-05-12T18:32:13.853Z,438.83
2019-05-12T18:34:49.378Z,121.00
2019-05-12T18:37:24.529Z,69.23
2019-05-12T18:39:59.855Z,105.37
2019-05-12T18:42:34.933Z,86.07
2019-05-12T18:45:12.467Z,493.67
2019-05-12T18:47:50.639Z,101.33
2019-05-12T18:50:39.351Z,28.50
2019-05-12T18:53:27.225Z,32.47
2019-05-12T18:55:53.983Z,78.33
2019-05-12T18:58:31.207Z,73.03
2019-05-12T19:01:06.815Z,33.07
2019-05-12T19:03:50.297Z,61.70
2019-05-12T19:06:19.386Z,55.80
2019-05-12T19:08:55.363Z,165.47
2019-05-12T19:11:37.454Z,268.47
2019-05-12T19:14:07.814Z,103.03
2019-05-12T19:16:43.614Z,341.93
2019-05-12T19:19:20.054Z,152.77
2019-05-12T19:22:05.117Z,136.07
2019-05-12T19:24:36.073Z,442.17
2019-05-12T19:27:10.427Z,159.37
2019-05-12T19:29:50.016Z,84.47
2019-05-12T19:32:27.988Z,268.93
2019-05-12T19:35:03.733Z,177.10
2019-05-12T19:37:42.395Z,100.83
2019-05-12T19:40:18.386Z,161.17
2019-05-12T19:43:06.182Z,106.60
2019-05-12T19:45:37.181Z,209.93
2019-05-12T19:48:24.038Z,138.77
2019-05-12T19:50:57.428Z,105.03
2019-05-12T19:53:33.297Z,241.07
2019-05-12T19:56:09.735Z,152.73
2019-05-12T19:58:46.982Z,275.07
2019-05-12T20:01:23.929Z,151.97
2019-05-12T20:04:00.291Z,365.87
2019-05-12T20:06:37.304Z,97.47
2019-05-12T20:09:14.672Z,225.00
2019-05-12T20:11:50.174Z,159.87
2019-05-12T20:14:26.713Z,118.40
2019-05-12T20:17:03.225Z,97.60
2019-05-12T20:19:38.764Z,114.13
2019-05-12T20:22:14.002Z,280.13
2019-05-12T20:24:50.104Z,583.00
2019-05-12T20:27:25.284Z,902.30
2019-05-12T20:30:08.990Z,135.60
2019-05-12T20:32:43.500Z,237.50
2019-05-12T20:35:20.669Z,261.10
2019-05-12T20:37:57.537Z,402.17
2019-05-12T20:40:37.532Z,114.97
2019-05-12T20:43:12.252Z,319.37
2019-05-12T20:45:48.315Z,169.27
2019-05-12T20:48:29.176Z,215.83
2019-05-12T20:51:03.489Z,569.23
2019-05-12T20:53:38.700Z,253.23
2019-05-12T20:56:20.248Z,176.23
2019-05-12T20:58:51.015Z,497.27
2019-05-12T21:01:30.293Z,460.97
2019-05-12T21:04:05.723Z,128.83
2019-05-12T21:06:41.940Z,260.83
2019-05-12T21:09:17.656Z,110.83
2019-05-12T21:11:54.969Z,129.83
2019-05-12T21:14:34.065Z,75.57
2019-05-12T21:17:14.541Z,150.23
2019-05-12T21:19:55.644Z,542.70
2019-05-12T21:22:24.130Z,127.50
2019-05-12T21:25:00.185Z,232.60
2019-05-12T21:27:36.275Z,517.43
2019-05-12T21:30:14.297Z,164.40
2019-05-12T21:32:56.451Z,189.03
2019-05-12T21:35:31.893Z,133.80
2019-05-12T21:38:06.248Z,404.50
2019-05-12T21:40:41.440Z,153.07
2019-05-12T21:43:16.797Z,131.83
2019-05-12T21:45:53.750Z,250.27
2019-05-12T21:48:30.328Z,177.83
2019-05-12T21:51:09.802Z,410.33
2019-05-12T21:53:43.722Z,650.83
2019-05-12T21:56:18.892Z,426.90
2019-05-12T21:58:58.154Z,386.77
2019-05-12T22:01:35.173Z,329.83
2019-05-12T22:04:08.226Z,274.30
2019-05-12T22:06:43.897Z,568.30
2019-05-12T22:09:19.461Z,421.63
2019-05-12T22:11:56.778Z,262.80
2019-05-12T22:14:36.628Z,910.70
2019-05-12T22:17:13.679Z,411.77
2019-05-12T22:19:48.566Z,472.53
2019-05-12T22:22:28.096Z,892.53
2019-05-12T22:25:00.942Z,417.43
2019-05-12T22:27:38.067Z,460.80
2019-05-12T22:30:13.624Z,680.23
2019-05-12T22:32:48.709Z,503.80
2019-05-12T22:35:24.468Z,256.83
2019-05-12T22:37:59.770Z,917.87
2019-05-12T22:40:35.040Z,912.13
2019-05-12T22:43:10.170Z,242.37
2019-05-12T22:45:49.198Z,691.33
2019-05-12T22:48:22.159Z,335.27
2019-05-12T22:50:57.436Z,458.07
2019-05-12T22:53:32.575Z,920.70
2019-05-12T22:56:12.295Z,630.90
2019-05-12T22:58:44.594Z,589.87
2019-05-12T23:01:19.987Z,293.60
2019-05-12T23:03:56.045Z,923.17
2019-05-12T23:06:33.537Z,295.20
2019-05-12T23:09:12.549Z,337.37
2019-05-12T23:11:48.071Z,685.77
2019-05-12T23:14:25.122Z,438.77
2019-05-12T23:17:05.723Z,915.33
2019-05-12T23:19:45.363Z,697.83
2019-05-12T23:22:15.153Z,483.07
2019-05-12T23:24:51.908Z,527.60
2019-05-12T23:27:29.938Z,881.67
2019-05-12T23:30:10.854Z,402.63
2019-05-12T23:32:51.184Z,579.17
2019-05-12T23:35:19.896Z,401.47
2019-05-12T23:37:55.207Z,393.67
2019-05-12T23:40:30.638Z,393.80
2019-05-12T23:43:06.905Z,327.73
2019-05-12T23:45:44.476Z,277.80
2019-05-12T23:48:19.876Z,285.80
2019-05-12T23:50:55.076Z,343.80
2019-05-12T23:53:30.382Z,386.90
2019-05-12T23:56:05.684Z,339.13
2019-05-12T23:58:43.180Z,113.57
